sensor_id;sensor_type;location;lat;lon;timestamp;pressure;altitude;pressure_sealevel;temperature;humidity
27980;BME280;15315;50.836;4.430;2022-08-19T00:09:23;100868.81;;;26.30;47.67
27980;BME280;15315;50.836;4.430;2022-08-19T00:19:24;100880.72;;;25.13;50.93
27980;BME280;15315;50.836;4.430;2022-08-19T00:29:24;100872.88;;;25.87;50.68
27980;BME280;15315;50.836;4.430;2022-08-19T00:39:25;100875.94;;;25.43;53.01
27980;BME280;15315;50.836;4.430;2022-08-19T00:49:38;100874.78;;;25.86;52.38
27980;BME280;15315;50.836;4.430;2022-08-19T00:59:42;100880.22;;;26.14;51.44
27980;BME280;15315;50.836;4.430;2022-08-19T01:09:46;100867.31;;;26.28;50.70
27980;BME280;15315;50.836;4.430;2022-08-19T01:19:47;100860.72;;;26.29;50.15
27980;BME280;15315;50.836;4.430;2022-08-19T01:29:47;100868.31;;;25.79;50.93
27980;BME280;15315;50.836;4.430;2022-08-19T01:39:48;100860.63;;;25.41;51.25
27980;BME280;15315;50.836;4.430;2022-08-19T01:49:48;100873.31;;;24.93;52.24
27980;BME280;15315;50.836;4.430;2022-08-19T01:59:48;100875.34;;;25.54;50.06
27980;BME280;15315;50.836;4.430;2022-08-19T02:09:50;100877.47;;;25.80;48.47
27980;BME280;15315;50.836;4.430;2022-08-19T02:19:50;100877.09;;;25.27;49.09
27980;BME280;15315;50.836;4.430;2022-08-19T02:29:51;100877.19;;;25.41;48.27
27980;BME280;15315;50.836;4.430;2022-08-19T02:39:52;100888.38;;;25.33;48.41
27980;BME280;15315;50.836;4.430;2022-08-19T02:49:53;100882.72;;;25.19;48.66
27980;BME280;15315;50.836;4.430;2022-08-19T02:59:53;100877.16;;;25.13;48.55
27980;BME280;15315;50.836;4.430;2022-08-19T03:09:54;100876.16;;;24.99;48.54
27980;BME280;15315;50.836;4.430;2022-08-19T03:19:54;100873.50;;;24.70;49.76
27980;BME280;15315;50.836;4.430;2022-08-19T03:29:55;100876.38;;;24.77;49.52
27980;BME280;15315;50.836;4.430;2022-08-19T03:39:55;100869.84;;;24.13;51.11
27980;BME280;15315;50.836;4.430;2022-08-19T03:49:56;100873.53;;;24.55;49.99
27980;BME280;15315;50.836;4.430;2022-08-19T03:59:56;100875.06;;;24.22;51.15
27980;BME280;15315;50.836;4.430;2022-08-19T04:09:56;100885.91;;;23.80;52.58
27980;BME280;15315;50.836;4.430;2022-08-19T04:19:57;100878.19;;;23.61;53.01
27980;BME280;15315;50.836;4.430;2022-08-19T04:29:57;100876.97;;;23.63;53.08
27980;BME280;15315;50.836;4.430;2022-08-19T04:39:58;100884.63;;;23.68;53.00
27980;BME280;15315;50.836;4.430;2022-08-19T04:50:17;100886.56;;;23.82;52.38
27980;BME280;15315;50.836;4.430;2022-08-19T05:00:17;100901.69;;;24.15;51.45
27980;BME280;15315;50.836;4.430;2022-08-19T05:10:17;100904.59;;;23.70;52.85
27980;BME280;15315;50.836;4.430;2022-08-19T05:20:18;100910.03;;;24.07;51.70
27980;BME280;15315;50.836;4.430;2022-08-19T05:30:38;100923.00;;;23.98;52.09
27980;BME280;15315;50.836;4.430;2022-08-19T05:40:38;100914.84;;;23.76;52.78
27980;BME280;15315;50.836;4.430;2022-08-19T05:50:40;100909.31;;;23.90;52.28
27980;BME280;15315;50.836;4.430;2022-08-19T06:00:43;100921.19;;;24.49;51.04
27980;BME280;15315;50.836;4.430;2022-08-19T06:10:43;100923.56;;;24.52;51.69
27980;BME280;15315;50.836;4.430;2022-08-19T06:20:44;100911.25;;;24.69;50.95
27980;BME280;15315;50.836;4.430;2022-08-19T06:30:44;100910.25;;;24.92;50.95
27980;BME280;15315;50.836;4.430;2022-08-19T06:40:45;100915.66;;;25.49;49.90
27980;BME280;15315;50.836;4.430;2022-08-19T06:50:45;100914.72;;;25.84;49.35
27980;BME280;15315;50.836;4.430;2022-08-19T07:00:45;100915.44;;;25.71;50.13
27980;BME280;15315;50.836;4.430;2022-08-19T07:10:46;100932.94;;;25.78;50.14
27980;BME280;15315;50.836;4.430;2022-08-19T07:20:47;100947.81;;;25.56;51.15
27980;BME280;15315;50.836;4.430;2022-08-19T07:30:48;100931.41;;;26.38;49.66
27980;BME280;15315;50.836;4.430;2022-08-19T07:40:50;100945.63;;;26.35;49.91
27980;BME280;15315;50.836;4.430;2022-08-19T07:50:53;100937.25;;;26.69;49.47
27980;BME280;15315;50.836;4.430;2022-08-19T08:00:54;100942.25;;;26.93;49.38
27980;BME280;15315;50.836;4.430;2022-08-19T08:10:54;100938.97;;;26.77;50.00
27980;BME280;15315;50.836;4.430;2022-08-19T08:20:55;100947.00;;;27.39;48.16
27980;BME280;15315;50.836;4.430;2022-08-19T08:30:57;100957.25;;;27.64;48.06
27980;BME280;15315;50.836;4.430;2022-08-19T08:41:02;100970.69;;;27.81;47.62
27980;BME280;15315;50.836;4.430;2022-08-19T08:51:16;100963.44;;;27.66;48.34
27980;BME280;15315;50.836;4.430;2022-08-19T09:01:18;100980.06;;;27.73;48.17
27980;BME280;15315;50.836;4.430;2022-08-19T09:21:34;100980.47;;;27.63;48.51
27980;BME280;15315;50.836;4.430;2022-08-19T09:31:34;100984.53;;;28.07;47.90
27980;BME280;15315;50.836;4.430;2022-08-19T09:41:35;100979.19;;;28.18;47.99
27980;BME280;15315;50.836;4.430;2022-08-19T09:51:35;100990.66;;;28.42;46.91
27980;BME280;15315;50.836;4.430;2022-08-19T10:01:36;100989.66;;;28.16;47.15
27980;BME280;15315;50.836;4.430;2022-08-19T10:11:40;100986.13;;;28.60;46.80
27980;BME280;15315;50.836;4.430;2022-08-19T10:21:40;100973.75;;;28.56;47.13
27980;BME280;15315;50.836;4.430;2022-08-19T10:31:41;100986.50;;;29.15;45.87
27980;BME280;15315;50.836;4.430;2022-08-19T10:41:42;100975.06;;;29.67;45.22
27980;BME280;15315;50.836;4.430;2022-08-19T10:51:43;100975.81;;;28.03;48.30
27980;BME280;15315;50.836;4.430;2022-08-19T11:02:04;100985.13;;;29.62;45.08
27980;BME280;15315;50.836;4.430;2022-08-19T11:12:06;100976.44;;;29.20;45.90
27980;BME280;15315;50.836;4.430;2022-08-19T11:22:08;100985.44;;;29.47;45.45
27980;BME280;15315;50.836;4.430;2022-08-19T11:32:10;100985.25;;;29.11;45.75
27980;BME280;15315;50.836;4.430;2022-08-19T11:42:11;100986.91;;;28.80;46.71
27980;BME280;15315;50.836;4.430;2022-08-19T11:52:30;100981.63;;;29.10;46.19
27980;BME280;15315;50.836;4.430;2022-08-19T12:02:30;100975.47;;;29.39;46.07
27980;BME280;15315;50.836;4.430;2022-08-19T12:12:31;100964.38;;;30.13;44.00
27980;BME280;15315;50.836;4.430;2022-08-19T12:22:32;100968.16;;;30.55;42.96
27980;BME280;15315;50.836;4.430;2022-08-19T12:32:33;100962.97;;;31.36;41.55
27980;BME280;15315;50.836;4.430;2022-08-19T12:42:33;100961.16;;;31.30;41.46
27980;BME280;15315;50.836;4.430;2022-08-19T12:52:36;100955.38;;;31.14;41.41
27980;BME280;15315;50.836;4.430;2022-08-19T13:02:38;100938.72;;;31.37;41.15
27980;BME280;15315;50.836;4.430;2022-08-19T13:12:39;100934.34;;;31.59;40.02
27980;BME280;15315;50.836;4.430;2022-08-19T13:22:41;100930.81;;;30.45;42.22
27980;BME280;15315;50.836;4.430;2022-08-19T13:32:42;100924.63;;;30.61;41.31
27980;BME280;15315;50.836;4.430;2022-08-19T13:43:03;100919.88;;;30.80;41.55
27980;BME280;15315;50.836;4.430;2022-08-19T13:53:04;100905.75;;;31.34;40.12
27980;BME280;15315;50.836;4.430;2022-08-19T14:03:05;100901.34;;;31.03;40.39
27980;BME280;15315;50.836;4.430;2022-08-19T14:13:05;100909.03;;;30.42;42.04
27980;BME280;15315;50.836;4.430;2022-08-19T14:23:06;100915.84;;;29.11;46.04
27980;BME280;15315;50.836;4.430;2022-08-19T14:33:06;100916.88;;;29.16;47.06
27980;BME280;15315;50.836;4.430;2022-08-19T14:43:08;100919.22;;;30.30;44.63
27980;BME280;15315;50.836;4.430;2022-08-19T14:53:08;100925.31;;;29.52;46.19
27980;BME280;15315;50.836;4.430;2022-08-19T15:03:09;100914.81;;;30.58;44.78
27980;BME280;15315;50.836;4.430;2022-08-19T15:13:09;100917.06;;;31.51;43.12
27980;BME280;15315;50.836;4.430;2022-08-19T15:23:10;100917.38;;;30.90;43.71
27980;BME280;15315;50.836;4.430;2022-08-19T15:33:11;100931.75;;;31.05;43.56
27980;BME280;15315;50.836;4.430;2022-08-19T15:43:16;100925.53;;;31.32;42.75
27980;BME280;15315;50.836;4.430;2022-08-19T15:53:17;100928.50;;;30.60;44.06
27980;BME280;15315;50.836;4.430;2022-08-19T16:03:17;100929.69;;;30.16;45.12
27980;BME280;15315;50.836;4.430;2022-08-19T16:13:36;100926.28;;;29.89;48.46
27980;BME280;15315;50.836;4.430;2022-08-19T16:23:38;100924.00;;;28.99;51.58
27980;BME280;15315;50.836;4.430;2022-08-19T16:33:39;100921.66;;;29.34;49.57
27980;BME280;15315;50.836;4.430;2022-08-19T16:43:40;100917.47;;;29.74;49.08
27980;BME280;15315;50.836;4.430;2022-08-19T16:53:42;100910.06;;;30.04;51.38
27980;BME280;15315;50.836;4.430;2022-08-19T17:03:43;100918.06;;;30.19;51.39
27980;BME280;15315;50.836;4.430;2022-08-19T17:13:45;100926.84;;;29.98;51.47
27980;BME280;15315;50.836;4.430;2022-08-19T17:23:46;100919.50;;;29.61;53.57
27980;BME280;15315;50.836;4.430;2022-08-19T17:33:47;100936.75;;;29.44;54.20
27980;BME280;15315;50.836;4.430;2022-08-19T17:43:48;100937.31;;;28.33;61.27
27980;BME280;15315;50.836;4.430;2022-08-19T17:53:51;100944.03;;;27.86;62.71
27980;BME280;15315;50.836;4.430;2022-08-19T18:03:51;100953.84;;;27.89;62.60
27980;BME280;15315;50.836;4.430;2022-08-19T18:13:52;100958.94;;;28.11;62.50
27980;BME280;15315;50.836;4.430;2022-08-19T18:23:52;100959.78;;;28.18;60.88
27980;BME280;15315;50.836;4.430;2022-08-19T18:33:52;100952.09;;;28.27;59.78
27980;BME280;15315;50.836;4.430;2022-08-19T18:43:53;100961.69;;;28.24;59.63
27980;BME280;15315;50.836;4.430;2022-08-19T18:54:12;100972.97;;;28.23;59.32
27980;BME280;15315;50.836;4.430;2022-08-19T19:04:13;100987.31;;;28.13;59.37
27980;BME280;15315;50.836;4.430;2022-08-19T19:14:19;100995.41;;;27.62;61.29
27980;BME280;15315;50.836;4.430;2022-08-19T19:24:30;101006.69;;;27.74;60.96
27980;BME280;15315;50.836;4.430;2022-08-19T19:34:31;101005.78;;;27.34;61.22
27980;BME280;15315;50.836;4.430;2022-08-19T19:44:32;101010.88;;;27.24;60.93
27980;BME280;15315;50.836;4.430;2022-08-19T19:54:33;101017.56;;;27.56;59.32
27980;BME280;15315;50.836;4.430;2022-08-19T20:04:34;101029.31;;;27.58;59.62
27980;BME280;15315;50.836;4.430;2022-08-19T20:14:36;101040.72;;;27.29;59.30
27980;BME280;15315;50.836;4.430;2022-08-19T20:24:37;101030.66;;;27.08;59.00
27980;BME280;15315;50.836;4.430;2022-08-19T20:34:39;101044.25;;;26.96;59.14
27980;BME280;15315;50.836;4.430;2022-08-19T20:44:39;101033.03;;;26.77;58.80
27980;BME280;15315;50.836;4.430;2022-08-19T20:54:40;101052.09;;;26.93;58.77
27980;BME280;15315;50.836;4.430;2022-08-19T21:04:40;101042.66;;;26.87;58.57
27980;BME280;15315;50.836;4.430;2022-08-19T21:14:42;101053.38;;;26.90;58.93
27980;BME280;15315;50.836;4.430;2022-08-19T21:24:42;101055.13;;;27.04;57.91
27980;BME280;15315;50.836;4.430;2022-08-19T21:34:42;101048.75;;;26.63;60.04
27980;BME280;15315;50.836;4.430;2022-08-19T21:44:43;101052.78;;;26.61;60.07
27980;BME280;15315;50.836;4.430;2022-08-19T21:54:44;101059.16;;;26.61;59.20
27980;BME280;15315;50.836;4.430;2022-08-19T22:04:44;101069.28;;;26.47;60.26
27980;BME280;15315;50.836;4.430;2022-08-19T22:14:45;101069.59;;;26.10;60.65
27980;BME280;15315;50.836;4.430;2022-08-19T22:24:45;101064.19;;;25.96;59.94
27980;BME280;15315;50.836;4.430;2022-08-19T22:34:46;101065.34;;;26.08;60.07
27980;BME280;15315;50.836;4.430;2022-08-19T22:44:47;101069.06;;;25.94;59.39
27980;BME280;15315;50.836;4.430;2022-08-19T22:54:50;101077.94;;;24.96;60.84
27980;BME280;15315;50.836;4.430;2022-08-19T23:04:52;101070.31;;;24.98;59.81
27980;BME280;15315;50.836;4.430;2022-08-19T23:14:52;101080.84;;;25.24;58.75
27980;BME280;15315;50.836;4.430;2022-08-19T23:24:52;101082.72;;;25.38;58.29
27980;BME280;15315;50.836;4.430;2022-08-19T23:34:54;101086.00;;;24.98;58.83
27980;BME280;15315;50.836;4.430;2022-08-19T23:45:03;101085.34;;;25.25;56.85
27980;BME280;15315;50.836;4.430;2022-08-19T23:55:06;101089.09;;;24.74;58.17
